Time;durP1;ratioP1;P1;durP2;ratioP2;P2;SDS_P1;SDS_P2;PMS_P1;PMS_P2;Temp;Humidity;BMP_temperature;BMP_pressure;BME280_temperature;BME280_humidity;BME280_pressure;Samples;Min_cycle;Max_cycle;Signal;HPM_P1;HPM_P2
2023/01/09 00:00:18;;;;;;;;;;;;;;;;;;4939898;29;20009;-91
2023/01/09 00:02:49;;;;;;;;;;;;;;;;;;4939722;29;19918;-90
2023/01/09 00:05:15;;;;;;;;;;;;;;;;;;4908327;29;19921;-90
2023/01/09 00:07:40;;;;;;;;;;;;;;;;;;4923855;29;19918;-90
2023/01/09 00:10:06;;;;;;;;;;;;;;;;;;4923953;29;19945;-90
2023/01/09 00:12:31;;;;;;;;;;;;;;;;;;4924072;29;20389;-91
2023/01/09 00:14:56;;;;;;;;;;;;;;;;;;4919784;29;19915;-90
2023/01/09 00:17:22;;;;;;;;;;;;;;;;;;4905251;29;19915;-89
2023/01/09 00:19:47;;;;;;;;;;;;;;;;;;4920614;29;19925;-90
2023/01/09 00:22:13;;;;;;;;;;;;;;;;;;4905008;29;20031;-91
2023/01/09 00:24:38;;;;;;;;;;;;;;;;;;4905062;29;19930;-91
2023/01/09 00:27:03;;;;;;;;;;;;;;;;;;4905026;29;19919;-89
2023/01/09 00:29:29;;;;;;;;;;;;;;;;;;4905139;29;19922;-90
2023/01/09 00:31:54;;;;;;;;;;;;;;;;;;4921684;29;19914;-88
2023/01/09 00:34:20;;;;;;;;;;;;;;;;;;4889272;29;19919;-89
2023/01/09 00:36:45;;;;;;;;;;;;;;;;;;4935929;29;19915;-90
2023/01/09 00:39:11;;;;;;;;;;;;;;;;;;4920199;29;20138;-89
2023/01/09 00:41:36;;;;;;;;;;;;;;;;;;4936357;29;19915;-90
2023/01/09 00:44:02;;;;;;;;;;;;;;;;;;4920825;29;20374;-87
2023/01/09 00:46:27;;;;;;;;;;;;;;;;;;4936653;29;19915;-89
2023/01/09 00:48:52;;;;;;;;;;;;;;;;;;4955628;28;20274;-89
2023/01/09 00:51:18;;;;;;;;;;;;;;;;;;4923451;29;20345;-89
2023/01/09 00:53:43;;;;;;;;;;;;;;;;;;4923416;29;19922;-89
2023/01/09 00:56:09;;;;;;;;;;;;;;;;;;4923555;29;19921;-88
2023/01/09 00:58:34;;;;;;;;;;;;;;;;;;4923847;29;19958;-88
2023/01/09 01:01:00;;;;;;;;;;;;;;;;;;4924070;29;20488;-88
2023/01/09 01:03:25;;;;;;;;;;;;;;;;;;4924371;29;19910;-89
2023/01/09 01:08:35;;;;;;;;;;;;;;;;;;4904496;29;20002;-89
2023/01/09 01:11:00;;;;;;;;;;;;;;;;;;4888599;29;20033;-89
2023/01/09 01:13:26;;;;;;;;;;;;;;;;;;4888907;29;19947;-88
2023/01/09 01:15:51;;;;;;;;;;;;;;;;;;4888582;29;19915;-89
2023/01/09 01:18:17;;;;;;;;;;;;;;;;;;4919747;29;19926;-89
2023/01/09 01:20:42;;;;;;;;;;;;;;;;;;4903934;29;19915;-88
2023/01/09 01:23:08;;;;;;;;;;;;;;;;;;4908069;29;19915;-85
2023/01/09 01:25:33;;;;;;;;;;;;;;;;;;4888401;29;19915;-90
2023/01/09 01:27:59;;;;;;;;;;;;;;;;;;4936180;29;19919;-90
2023/01/09 01:30:26;;;;;;;;;;;;;;;;;;4903522;29;19970;-88
2023/01/09 01:32:51;;;;;;;;;;;;;;;;;;4904201;29;19918;-89
2023/01/09 01:35:17;;;;;;;;;;;;;;;;;;4903608;29;20014;-89
2023/01/09 01:37:42;;;;;;;;;;;;;;;;;;4919118;29;19953;-89
2023/01/09 01:40:08;;;;;;;;;;;;;;;;;;4924672;29;19911;-88
2023/01/09 01:42:33;;;;;;;;;;;;;;;;;;4922417;29;19966;-89
2023/01/09 01:44:58;;;;;;;;;;;;;;;;;;4937878;29;19919;-89
2023/01/09 01:47:24;;;;;;;;;;;;;;;;;;4955099;29;19921;-89
2023/01/09 01:49:49;;;;;;;;;;;;;;;;;;4930975;29;19914;-88
2023/01/09 01:52:16;;;;;;;;;;;;;;;;;;4938238;29;19914;-88
2023/01/09 01:54:41;;;;;;;;;;;;;;;;;;4922389;29;19914;-89
2023/01/09 01:57:07;;;;;;;;;;;;;;;;;;4933378;29;19969;-89
2023/01/09 01:59:32;;;;;;;;;;;;;;;;;;4922124;29;19973;-89
2023/01/09 02:01:58;;;;;;;;;;;;;;;;;;4937828;29;20053;-90
2023/01/09 02:04:23;;;;;;;;;;;;;;;;;;4922018;29;19937;-89
2023/01/09 02:06:49;;;;;;;;;;;;;;;;;;4922073;29;19914;-89
2023/01/09 02:09:16;;;;;;;;;;;;;;;;;;4922319;29;20076;-89
2023/01/09 02:11:42;;;;;;;;;;;;;;;;;;4936494;29;19953;-88
2023/01/09 02:14:10;;;;;;;;;;;;;;;;;;4930191;29;19963;-90
2023/01/09 02:16:35;;;;;;;;;;;;;;;;;;4887380;29;19961;-89
2023/01/09 02:19:01;;;;;;;;;;;;;;;;;;4887191;29;19918;-88
2023/01/09 02:21:26;;;;;;;;;;;;;;;;;;4887302;29;20163;-89
2023/01/09 02:23:52;;;;;;;;;;;;;;;;;;4902857;29;19919;-90
2023/01/09 02:26:20;;;;;;;;;;;;;;;;;;4902756;29;19919;-88
2023/01/09 02:28:46;;;;;;;;;;;;;;;;;;4921614;29;19974;-88
2023/01/09 02:31:11;;;;;;;;;;;;;;;;;;4934546;29;19919;-89
2023/01/09 02:33:37;;;;;;;;;;;;;;;;;;4902949;29;20268;-89
2023/01/09 02:36:02;;;;;;;;;;;;;;;;;;4919666;29;19914;-90
2023/01/09 02:38:28;;;;;;;;;;;;;;;;;;4936943;29;19985;-90
2023/01/09 02:40:53;;;;;;;;;;;;;;;;;;4890309;29;19915;-90
2023/01/09 02:43:18;;;;;;;;;;;;;;;;;;4906079;29;19938;-89
2023/01/09 02:45:44;;;;;;;;;;;;;;;;;;4892683;29;19915;-90
2023/01/09 02:48:09;;;;;;;;;;;;;;;;;;4934868;29;19922;-89
2023/01/09 02:50:35;;;;;;;;;;;;;;;;;;4925470;29;19914;-89
2023/01/09 02:53:00;;;;;;;;;;;;;;;;;;4941859;29;20271;-89
2023/01/09 02:55:26;;;;;;;;;;;;;;;;;;4925791;29;19914;-87
2023/01/09 02:57:51;;;;;;;;;;;;;;;;;;4942953;29;20453;-91
2023/01/09 03:00:17;;;;;;;;;;;;;;;;;;4927969;29;19957;-89
2023/01/09 03:02:42;;;;;;;;;;;;;;;;;;4942280;29;20354;-91
2023/01/09 03:05:08;;;;;;;;;;;;;;;;;;4924976;29;19962;-91
2023/01/09 03:07:33;;;;;;;;;;;;;;;;;;4941755;29;19915;-89
2023/01/09 03:09:59;;;;;;;;;;;;;;;;;;4919199;29;19918;-91
2023/01/09 03:12:24;;;;;;;;;;;;;;;;;;4919092;29;19918;-90
2023/01/09 03:14:50;;;;;;;;;;;;;;;;;;4918971;29;19919;-90
2023/01/09 03:17:15;;;;;;;;;;;;;;;;;;4920382;29;19966;-90
2023/01/09 03:19:41;;;;;;;;;;;;;;;;;;4919819;29;19922;-90
2023/01/09 03:22:06;;;;;;;;;;;;;;;;;;4950098;28;19918;-90
2023/01/09 03:24:32;;;;;;;;;;;;;;;;;;4928837;29;19921;-87
2023/01/09 03:27:01;;;;;;;;;;;;;;;;;;4949896;23;20278;-82
2023/01/09 03:29:26;;;;;;;;;;;;;;;;;;4960793;29;19909;-82
2023/01/09 03:31:52;;;;;;;;;;;;;;;;;;4944084;29;19947;-82
2023/01/09 03:34:17;;;;;;;;;;;;;;;;;;4944188;29;19922;-82
2023/01/09 03:36:43;;;;;;;;;;;;;;;;;;4943844;29;19915;-82
2023/01/09 03:39:09;;;;;;;;;;;;;;;;;;4959882;29;19978;-82
2023/01/09 03:41:34;;;;;;;;;;;;;;;;;;4942846;29;19982;-82
2023/01/09 03:44:00;;;;;;;;;;;;;;;;;;4959123;29;19922;-82
2023/01/09 03:46:25;;;;;;;;;;;;;;;;;;4957592;29;19914;-82
2023/01/09 03:48:51;;;;;;;;;;;;;;;;;;4944207;29;19929;-82
2023/01/09 03:51:16;;;;;;;;;;;;;;;;;;4958329;29;19915;-82
2023/01/09 03:53:42;;;;;;;;;;;;;;;;;;4960506;29;19906;-83
2023/01/09 03:56:07;;;;;;;;;;;;;;;;;;4941981;29;19982;-83
2023/01/09 03:58:33;;;;;;;;;;;;;;;;;;4942196;29;20446;-82
2023/01/09 04:00:58;;;;;;;;;;;;;;;;;;4928092;29;19938;-82
2023/01/09 04:03:24;;;;;;;;;;;;;;;;;;4940855;29;19915;-82
2023/01/09 04:05:49;;;;;;;;;;;;;;;;;;4940555;29;19950;-82
2023/01/09 04:08:15;;;;;;;;;;;;;;;;;;4941108;29;19915;-81
2023/01/09 04:10:40;;;;;;;;;;;;;;;;;;4952254;29;19906;-82
2023/01/09 04:13:05;;;;;;;;;;;;;;;;;;4939519;29;20392;-82
2023/01/09 04:15:31;;;;;;;;;;;;;;;;;;4937854;29;19922;-82
2023/01/09 04:17:56;;;;;;;;;;;;;;;;;;4953901;29;19957;-81
2023/01/09 04:20:22;;;;;;;;;;;;;;;;;;4953264;29;19943;-83
2023/01/09 04:22:47;;;;;;;;;;;;;;;;;;4937114;29;19915;-83
2023/01/09 04:25:13;;;;;;;;;;;;;;;;;;4936241;29;19915;-83
2023/01/09 04:27:38;;;;;;;;;;;;;;;;;;4934611;29;19919;-83
2023/01/09 04:30:04;;;;;;;;;;;;;;;;;;4939644;29;19899;-83
2023/01/09 04:32:29;;;;;;;;;;;;;;;;;;4933423;29;19926;-84
2023/01/09 04:34:55;;;;;;;;;;;;;;;;;;4932045;29;19915;-82
2023/01/09 04:37:20;;;;;;;;;;;;;;;;;;4898246;29;20367;-83
2023/01/09 04:39:45;;;;;;;;;;;;;;;;;;4921129;29;19967;-84
2023/01/09 04:42:11;;;;;;;;;;;;;;;;;;4923989;29;19915;-83
2023/01/09 04:44:36;;;;;;;;;;;;;;;;;;4922979;29;20298;-83
2023/01/09 04:47:01;;;;;;;;;;;;;;;;;;4942597;29;19915;-84
2023/01/09 04:49:27;;;;;;;;;;;;;;;;;;4923587;29;20046;-84
2023/01/09 04:51:52;;;;;;;;;;;;;;;;;;4940862;29;19919;-84
2023/01/09 04:54:18;;;;;;;;;;;;;;;;;;4937970;29;19915;-83
2023/01/09 04:56:43;;;;;;;;;;;;;;;;;;4921828;29;19922;-83
2023/01/09 04:59:09;;;;;;;;;;;;;;;;;;4939409;29;20342;-84
2023/01/09 05:01:34;;;;;;;;;;;;;;;;;;4943554;29;19914;-82
2023/01/09 05:04:00;;;;;;;;;;;;;;;;;;4917236;29;19919;-84
2023/01/09 05:06:25;;;;;;;;;;;;;;;;;;4912261;29;19954;-84
2023/01/09 05:08:51;;;;;;;;;;;;;;;;;;4909373;29;20371;-83
2023/01/09 05:11:16;;;;;;;;;;;;;;;;;;4925083;29;20401;-84
2023/01/09 05:13:41;;;;;;;;;;;;;;;;;;4940589;29;19919;-84
2023/01/09 05:16:07;;;;;;;;;;;;;;;;;;4943747;29;19915;-83
2023/01/09 05:18:32;;;;;;;;;;;;;;;;;;4936269;29;19915;-83
2023/01/09 05:20:57;;;;;;;;;;;;;;;;;;4956187;29;19922;-83
2023/01/09 05:23:23;;;;;;;;;;;;;;;;;;4958096;29;19931;-82
2023/01/09 05:25:48;;;;;;;;;;;;;;;;;;4957194;29;19927;-83
2023/01/09 05:28:14;;;;;;;;;;;;;;;;;;4955264;29;19970;-83
2023/01/09 05:30:39;;;;;;;;;;;;;;;;;;4957042;29;19926;-83
2023/01/09 05:33:05;;;;;;;;;;;;;;;;;;4956195;29;19903;-83
2023/01/09 05:35:30;;;;;;;;;;;;;;;;;;4957748;29;20420;-83
2023/01/09 05:37:56;;;;;;;;;;;;;;;;;;4959051;28;19946;-83
2023/01/09 05:40:24;;;;;;;;;;;;;;;;;;4958472;29;19981;-83
2023/01/09 05:42:50;;;;;;;;;;;;;;;;;;4958172;29;19919;-83
2023/01/09 05:45:15;;;;;;;;;;;;;;;;;;4942639;29;19906;-82
2023/01/09 05:47:41;;;;;;;;;;;;;;;;;;4941932;29;19946;-82
2023/01/09 05:50:07;;;;;;;;;;;;;;;;;;4943585;29;19919;-82
2023/01/09 05:52:32;;;;;;;;;;;;;;;;;;4942447;29;19942;-83
2023/01/09 05:54:58;;;;;;;;;;;;;;;;;;4926960;29;19915;-83
2023/01/09 05:57:23;;;;;;;;;;;;;;;;;;4959340;29;19962;-83
2023/01/09 05:59:49;;;;;;;;;;;;;;;;;;4926259;29;19922;-82
2023/01/09 06:02:14;;;;;;;;;;;;;;;;;;4925540;29;19903;-82
2023/01/09 06:04:42;;;;;;;;;;;;;;;;;;4925505;29;19919;-83
2023/01/09 06:07:10;;;;;;;;;;;;;;;;;;4910365;29;19919;-83
2023/01/09 06:09:36;;;;;;;;;;;;;;;;;;4921855;29;20010;-83
2023/01/09 06:12:01;;;;;;;;;;;;;;;;;;4906131;29;19922;-83
2023/01/09 06:14:28;;;;;;;;;;;;;;;;;;4921687;29;19916;-84
2023/01/09 06:16:54;;;;;;;;;;;;;;;;;;4907332;29;19939;-82
2023/01/09 06:19:19;;;;;;;;;;;;;;;;;;4922716;29;19945;-82
2023/01/09 06:21:45;;;;;;;;;;;;;;;;;;4907914;29;19915;-83
2023/01/09 06:24:11;;;;;;;;;;;;;;;;;;4908154;29;19899;-84
2023/01/09 06:26:37;;;;;;;;;;;;;;;;;;4936819;29;19899;-83
2023/01/09 06:29:02;;;;;;;;;;;;;;;;;;4953862;29;19919;-83
2023/01/09 06:31:28;;;;;;;;;;;;;;;;;;4937553;29;19915;-82
2023/01/09 06:33:56;;;;;;;;;;;;;;;;;;4935727;29;19982;-83
2023/01/09 06:36:21;;;;;;;;;;;;;;;;;;4954259;29;19915;-83
2023/01/09 06:38:47;;;;;;;;;;;;;;;;;;4952303;29;19974;-82
2023/01/09 06:41:13;;;;;;;;;;;;;;;;;;4935620;29;19938;-82
2023/01/09 06:43:38;;;;;;;;;;;;;;;;;;4955087;29;19911;-82
2023/01/09 06:46:07;;;;;;;;;;;;;;;;;;4934012;29;19937;-82
2023/01/09 06:48:32;;;;;;;;;;;;;;;;;;4954820;29;19915;-83
2023/01/09 06:50:58;;;;;;;;;;;;;;;;;;4955898;29;20007;-83
2023/01/09 06:53:23;;;;;;;;;;;;;;;;;;4954636;29;19974;-82
2023/01/09 06:55:49;;;;;;;;;;;;;;;;;;4939403;29;19954;-83
2023/01/09 06:58:14;;;;;;;;;;;;;;;;;;4940024;29;19925;-82
2023/01/09 07:00:40;;;;;;;;;;;;;;;;;;4937234;29;19903;-83
2023/01/09 07:03:06;;;;;;;;;;;;;;;;;;4924040;29;19979;-82
2023/01/09 07:05:31;;;;;;;;;;;;;;;;;;4939253;29;19915;-82
2023/01/09 07:07:57;;;;;;;;;;;;;;;;;;4939728;29;19922;-83
2023/01/09 07:10:22;;;;;;;;;;;;;;;;;;4937713;29;19912;-83
2023/01/09 07:12:48;;;;;;;;;;;;;;;;;;4934540;29;19934;-83
2023/01/09 07:15:13;;;;;;;;;;;;;;;;;;4916875;29;19940;-82
2023/01/09 07:17:39;;;;;;;;;;;;;;;;;;4949623;29;19972;-82
2023/01/09 07:20:04;;;;;;;;;;;;;;;;;;4958521;29;19926;-83
2023/01/09 07:22:32;;;;;;;;;;;;;;;;;;4943541;29;19914;-83
2023/01/09 07:24:58;;;;;;;;;;;;;;;;;;4959477;29;20417;-83
2023/01/09 07:27:26;;;;;;;;;;;;;;;;;;4943061;29;19954;-84
2023/01/09 07:29:52;;;;;;;;;;;;;;;;;;4943876;29;19915;-84
2023/01/09 07:32:18;;;;;;;;;;;;;;;;;;4958611;29;19899;-83
2023/01/09 07:34:43;;;;;;;;;;;;;;;;;;4942949;29;19942;-82
2023/01/09 07:37:09;;;;;;;;;;;;;;;;;;4959436;29;19899;-83
2023/01/09 07:39:34;;;;;;;;;;;;;;;;;;4944382;29;19918;-83
2023/01/09 07:42:01;;;;;;;;;;;;;;;;;;4944441;29;19921;-83
2023/01/09 07:44:29;;;;;;;;;;;;;;;;;;4945328;29;19915;-82
2023/01/09 07:46:59;;;;;;;;;;;;;;;;;;4945735;29;19911;-83
2023/01/09 07:49:26;;;;;;;;;;;;;;;;;;4930581;29;19915;-83
2023/01/09 07:51:54;;;;;;;;;;;;;;;;;;4946035;29;20213;-84
2023/01/09 07:54:20;;;;;;;;;;;;;;;;;;4936411;29;19922;-82
2023/01/09 07:56:45;;;;;;;;;;;;;;;;;;4938795;29;19915;-82
2023/01/09 07:59:11;;;;;;;;;;;;;;;;;;4937142;29;19923;-83
2023/01/09 08:01:39;;;;;;;;;;;;;;;;;;4937213;29;19977;-82
2023/01/09 08:04:07;;;;;;;;;;;;;;;;;;4942693;29;19931;-83
2023/01/09 08:06:33;;;;;;;;;;;;;;;;;;4944268;29;20040;-83
2023/01/09 08:08:58;;;;;;;;;;;;;;;;;;4960135;29;19921;-83
2023/01/09 08:11:24;;;;;;;;;;;;;;;;;;4955232;29;19923;-82
2023/01/09 08:13:49;;;;;;;;;;;;;;;;;;4953818;29;19919;-82
2023/01/09 08:16:17;;;;;;;;;;;;;;;;;;4954744;29;19915;-82
2023/01/09 08:18:45;;;;;;;;;;;;;;;;;;4940770;29;19923;-84
2023/01/09 08:21:11;;;;;;;;;;;;;;;;;;4942178;29;19952;-83
2023/01/09 08:23:36;;;;;;;;;;;;;;;;;;4941225;29;19912;-82
2023/01/09 08:26:02;;;;;;;;;;;;;;;;;;4940015;29;19915;-83
2023/01/09 08:28:28;;;;;;;;;;;;;;;;;;4927658;29;20263;-83
2023/01/09 08:30:53;;;;;;;;;;;;;;;;;;4944745;29;19915;-83
2023/01/09 08:33:19;;;;;;;;;;;;;;;;;;4942838;29;19914;-82
2023/01/09 08:35:44;;;;;;;;;;;;;;;;;;4941187;29;19922;-83
2023/01/09 08:38:10;;;;;;;;;;;;;;;;;;4958526;29;19910;-83
2023/01/09 08:40:36;;;;;;;;;;;;;;;;;;4940329;29;19915;-83
2023/01/09 08:48:44;;;;;;;;;;;;;;;;;;4910398;29;19906;-82
2023/01/09 09:59:28;;;;;;;;;;;;;;;;;;5528482;23;19942;-84
2023/01/09 10:01:56;;;;;;;;;;;;;;;;;;4932897;28;19909;-83
2023/01/09 10:04:29;;;;;;;;;;;;;;;;;;4933437;28;19919;-83
2023/01/09 10:06:58;;;;;;;;;;;;;;;;;;5023761;23;19926;-84
2023/01/09 10:09:24;;;;;;;;;;;;;;;;;;4945799;28;19945;-84
2023/01/09 10:11:54;;;;;;;;;;;;;;;;;;4945217;28;19903;-82
2023/01/09 10:14:21;;;;;;;;;;;;;;;;;;4930327;29;19910;-83
2023/01/09 10:16:48;;;;;;;;;;;;;;;;;;4961772;28;19933;-84
2023/01/09 10:19:18;;;;;;;;;;;;;;;;;;4928612;29;19934;-84
2023/01/09 10:21:44;;;;;;;;;;;;;;;;;;4945026;28;19966;-84
2023/01/09 10:24:10;;;;;;;;;;;;;;;;;;4928652;29;19919;-84
2023/01/09 10:26:36;;;;;;;;;;;;;;;;;;4944785;28;19990;-84
2023/01/09 10:29:05;;;;;;;;;;;;;;;;;;4961281;28;19958;-84
2023/01/09 10:31:32;;;;;;;;;;;;;;;;;;4959333;29;19957;-84
2023/01/09 10:33:59;;;;;;;;;;;;;;;;;;4911266;29;19915;-84
2023/01/09 10:36:28;;;;;;;;;;;;;;;;;;4911593;28;19934;-84
2023/01/09 10:39:10;;;;;;;;;;;;;;;;;;4931867;28;19911;-85
2023/01/09 10:41:36;;;;;;;;;;;;;;;;;;4913163;28;19919;-84
2023/01/09 10:44:03;;;;;;;;;;;;;;;;;;4913430;28;19918;-84
2023/01/09 10:46:33;;;;;;;;;;;;;;;;;;5350144;23;20820;-85
2023/01/09 10:48:58;;;;;;;;;;;;;;;;;;5170671;23;19914;-83
2023/01/09 10:51:25;;;;;;;;;;;;;;;;;;4963822;28;19918;-83
2023/01/09 10:53:53;;;;;;;;;;;;;;;;;;4948142;28;19903;-83
2023/01/09 10:58:57;;;;;;;;;;;;;;;;;;4924232;29;19941;-83
2023/01/09 11:01:22;;;;;;;;;;;;;;;;;;4925737;29;19935;-82
2023/01/09 11:03:50;;;;;;;;;;;;;;;;;;4909707;28;19911;-83
2023/01/09 11:06:16;;;;;;;;;;;;;;;;;;5335328;23;19922;-84
2023/01/09 11:08:41;;;;;;;;;;;;;;;;;;4943801;28;19903;-85
2023/01/09 11:11:07;;;;;;;;;;;;;;;;;;5059267;23;19938;-83
2023/01/09 11:13:33;;;;;;;;;;;;;;;;;;4966630;28;19914;-81
2023/01/09 11:15:59;;;;;;;;;;;;;;;;;;4981577;28;19906;-81
2023/01/09 11:23:49;;;;;;;;;;;;;;;;;;5348649;23;19926;-81
2023/01/09 11:26:17;;;;;;;;;;;;;;;;;;4962631;29;19914;-82
2023/01/09 11:28:45;;;;;;;;;;;;;;;;;;4943351;29;19911;-83
2023/01/09 11:31:14;;;;;;;;;;;;;;;;;;4954492;29;20006;-83
2023/01/09 11:33:42;;;;;;;;;;;;;;;;;;4923981;29;19915;-83
2023/01/09 11:36:09;;;;;;;;;;;;;;;;;;4951014;29;19926;-82
2023/01/09 11:38:36;;;;;;;;;;;;;;;;;;4937687;29;19911;-82
2023/01/09 11:41:03;;;;;;;;;;;;;;;;;;4942390;29;19942;-82
2023/01/09 11:43:29;;;;;;;;;;;;;;;;;;4928485;28;19903;-83
2023/01/09 11:45:56;;;;;;;;;;;;;;;;;;4931558;28;19903;-82
2023/01/09 11:48:24;;;;;;;;;;;;;;;;;;4915605;29;19986;-82
2023/01/09 11:50:50;;;;;;;;;;;;;;;;;;4915719;29;19919;-83
2023/01/09 11:53:16;;;;;;;;;;;;;;;;;;4916326;28;19910;-82
2023/01/09 11:55:43;;;;;;;;;;;;;;;;;;4947393;28;19954;-82
2023/01/09 11:58:09;;;;;;;;;;;;;;;;;;4932404;28;19915;-84
2023/01/09 12:00:39;;;;;;;;;;;;;;;;;;4947535;28;19903;-83
2023/01/09 12:03:05;;;;;;;;;;;;;;;;;;4931972;28;19974;-84
2023/01/09 12:05:31;;;;;;;;;;;;;;;;;;4931825;28;19903;-82
2023/01/09 12:07:57;;;;;;;;;;;;;;;;;;4947144;29;19902;-83
2023/01/09 12:13:04;;;;;;;;;;;;;;;;;;5080731;23;19911;-86
2023/01/09 12:15:31;;;;;;;;;;;;;;;;;;4966601;28;19934;-85
2023/01/09 12:17:56;;;;;;;;;;;;;;;;;;4947434;28;19930;-82
2023/01/09 12:20:22;;;;;;;;;;;;;;;;;;4931619;29;19902;-85
2023/01/09 12:22:47;;;;;;;;;;;;;;;;;;4920220;29;19995;-87
2023/01/09 12:25:13;;;;;;;;;;;;;;;;;;4913869;29;19919;-86
2023/01/09 12:27:38;;;;;;;;;;;;;;;;;;4924225;29;19994;-90
2023/01/09 12:30:03;;;;;;;;;;;;;;;;;;4921475;29;19915;-89
2023/01/09 12:32:29;;;;;;;;;;;;;;;;;;4890505;29;19914;-89
2023/01/09 12:34:54;;;;;;;;;;;;;;;;;;4938309;29;19918;-88
2023/01/09 12:37:21;;;;;;;;;;;;;;;;;;4921574;29;19975;-89
2023/01/09 12:39:47;;;;;;;;;;;;;;;;;;4936707;29;19923;-90
2023/01/09 12:42:12;;;;;;;;;;;;;;;;;;4924299;29;19915;-88
2023/01/09 12:44:43;;;;;;;;;;;;;;;;;;4946068;28;19903;-84
2023/01/09 12:47:09;;;;;;;;;;;;;;;;;;4942278;29;20433;-86
2023/01/09 12:49:35;;;;;;;;;;;;;;;;;;4916216;29;19939;-84
2023/01/09 12:52:06;;;;;;;;;;;;;;;;;;4939586;29;19910;-82
2023/01/09 12:54:33;;;;;;;;;;;;;;;;;;4946649;28;19913;-83
2023/01/09 12:56:58;;;;;;;;;;;;;;;;;;4931149;28;19915;-82
2023/01/09 12:59:28;;;;;;;;;;;;;;;;;;4930170;28;19934;-81
2023/01/09 13:01:54;;;;;;;;;;;;;;;;;;4930307;28;19927;-83
2023/01/09 13:04:20;;;;;;;;;;;;;;;;;;4962251;28;19903;-83
2023/01/09 13:06:46;;;;;;;;;;;;;;;;;;4946344;29;19919;-83
2023/01/09 13:09:11;;;;;;;;;;;;;;;;;;4962539;28;19902;-84
2023/01/09 13:11:37;;;;;;;;;;;;;;;;;;4945765;29;19945;-82
2023/01/09 13:14:02;;;;;;;;;;;;;;;;;;4946357;28;19903;-83
2023/01/09 13:16:31;;;;;;;;;;;;;;;;;;5016916;23;19978;-83
2023/01/09 13:18:57;;;;;;;;;;;;;;;;;;4966580;28;19923;-83
2023/01/09 13:21:25;;;;;;;;;;;;;;;;;;4945799;28;19903;-83
2023/01/09 13:23:51;;;;;;;;;;;;;;;;;;5135541;23;19945;-83
2023/01/09 13:26:19;;;;;;;;;;;;;;;;;;4965665;28;19918;-82
2023/01/09 13:28:45;;;;;;;;;;;;;;;;;;4965165;28;19910;-82
2023/01/09 13:31:12;;;;;;;;;;;;;;;;;;4965179;28;19922;-82
2023/01/09 13:33:37;;;;;;;;;;;;;;;;;;4964458;28;19951;-85
2023/01/09 13:36:03;;;;;;;;;;;;;;;;;;4945672;29;19922;-86
2023/01/09 13:38:30;;;;;;;;;;;;;;;;;;4964095;28;19917;-82
2023/01/09 13:42:34;;;;;;;;;;;;;;;;;;4980944;28;19962;-83
2023/01/09 13:43:41;;;;;;;;;;;;;;;;;;4977466;28;19919;-85
2023/01/09 13:46:07;;;;;;;;;;;;;;;;;;4954800;29;19918;-87
2023/01/09 13:48:32;;;;;;;;;;;;;;;;;;4938334;29;19926;-89
2023/01/09 13:50:58;;;;;;;;;;;;;;;;;;4940367;29;19969;-86
2023/01/09 13:53:28;;;;;;;;;;;;;;;;;;4920977;29;19914;-90
2023/01/09 13:55:53;;;;;;;;;;;;;;;;;;4924810;29;19915;-87
2023/01/09 13:58:21;;;;;;;;;;;;;;;;;;4935667;29;19946;-88
2023/01/09 14:00:46;;;;;;;;;;;;;;;;;;4889937;29;19962;-90
2023/01/09 14:03:12;;;;;;;;;;;;;;;;;;4905200;29;20370;-89
2023/01/09 14:05:37;;;;;;;;;;;;;;;;;;4920566;29;19923;-90
2023/01/09 14:08:03;;;;;;;;;;;;;;;;;;4935229;29;19915;-89
2023/01/09 14:10:28;;;;;;;;;;;;;;;;;;4913574;29;19918;-89
2023/01/09 14:12:54;;;;;;;;;;;;;;;;;;4955777;29;20452;-89
2023/01/09 14:15:19;;;;;;;;;;;;;;;;;;4956108;29;19914;-90
2023/01/09 14:17:44;;;;;;;;;;;;;;;;;;4957047;29;20039;-88
2023/01/09 14:20:10;;;;;;;;;;;;;;;;;;4940743;29;19918;-90
2023/01/09 14:22:35;;;;;;;;;;;;;;;;;;4940214;29;19914;-87
2023/01/09 14:25:01;;;;;;;;;;;;;;;;;;4956312;29;19961;-86
2023/01/09 14:27:27;;;;;;;;;;;;;;;;;;4947342;29;19926;-83
2023/01/09 14:29:53;;;;;;;;;;;;;;;;;;4943099;29;20001;-83
2023/01/09 14:32:20;;;;;;;;;;;;;;;;;;4943150;29;19926;-82
2023/01/09 14:34:47;;;;;;;;;;;;;;;;;;4928160;29;19921;-84
2023/01/09 14:37:16;;;;;;;;;;;;;;;;;;4925557;29;19922;-83
2023/01/09 14:39:42;;;;;;;;;;;;;;;;;;4956946;29;19923;-83
2023/01/09 14:42:14;;;;;;;;;;;;;;;;;;4926989;29;19908;-83
2023/01/09 14:44:40;;;;;;;;;;;;;;;;;;4959872;28;19922;-84
2023/01/09 14:47:07;;;;;;;;;;;;;;;;;;4944410;29;19919;-84
2023/01/09 14:49:33;;;;;;;;;;;;;;;;;;4960890;29;19921;-83
2023/01/09 14:52:04;;;;;;;;;;;;;;;;;;4930711;29;19902;-84
2023/01/09 14:54:33;;;;;;;;;;;;;;;;;;5354590;23;19933;-84
2023/01/09 14:57:01;;;;;;;;;;;;;;;;;;4909801;29;19919;-83
2023/01/09 14:59:26;;;;;;;;;;;;;;;;;;5070162;23;19926;-83
2023/01/09 15:01:54;;;;;;;;;;;;;;;;;;4975406;28;19918;-82
2023/01/09 15:04:19;;;;;;;;;;;;;;;;;;4938874;29;19914;-84
2023/01/09 15:09:35;;;;;;;;;;;;;;;;;;5346673;23;19914;-92
2023/01/09 15:25:37;;;;;;;;;;;;;;;;;;5508252;23;19926;-90
2023/01/09 16:16:59;;;;;;;;;;;;;;;;;;5411097;23;19917;-86
2023/01/09 16:22:10;;;;;;;;;;;;;;;;;;5202526;23;19910;-85
2023/01/09 16:59:42;;;;;;;;;;;;;;;;;;5327085;23;19938;-84
2023/01/09 17:02:11;;;;;;;;;;;;;;;;;;4949691;28;19909;-85
2023/01/09 17:04:39;;;;;;;;;;;;;;;;;;4933243;29;19909;-85
2023/01/09 17:07:12;;;;;;;;;;;;;;;;;;4935245;28;19970;-85
2023/01/09 17:09:44;;;;;;;;;;;;;;;;;;4943447;29;19923;-86
2023/01/09 17:12:18;;;;;;;;;;;;;;;;;;5291133;23;19924;-83
2023/01/09 17:14:44;;;;;;;;;;;;;;;;;;4945585;28;19910;-86
2023/01/09 17:17:33;;;;;;;;;;;;;;;;;;4933524;28;19923;-84
2023/01/09 17:20:06;;;;;;;;;;;;;;;;;;4943016;28;19911;-84
2023/01/09 17:22:34;;;;;;;;;;;;;;;;;;4927610;29;19903;-84
2023/01/09 17:41:42;;;;;;;;;;;;;;;;;;5515399;23;19910;-84
2023/01/09 17:47:08;;;;;;;;;;;;;;;;;;5070513;23;19915;-85
2023/01/09 17:49:34;;;;;;;;;;;;;;;;;;4964781;28;19903;-84
2023/01/09 17:51:59;;;;;;;;;;;;;;;;;;4964856;28;19918;-84
2023/01/09 17:54:25;;;;;;;;;;;;;;;;;;5497250;23;19917;-84
2023/01/09 17:56:52;;;;;;;;;;;;;;;;;;4930324;28;19910;-85
2023/01/09 17:59:22;;;;;;;;;;;;;;;;;;4926175;29;19918;-84
2023/01/09 18:01:53;;;;;;;;;;;;;;;;;;4911315;29;19903;-83
2023/01/09 18:04:20;;;;;;;;;;;;;;;;;;4926705;28;19903;-83
2023/01/09 18:06:48;;;;;;;;;;;;;;;;;;4910794;28;19907;-84
2023/01/09 18:09:14;;;;;;;;;;;;;;;;;;4910451;28;19910;-84
2023/01/09 18:12:00;;;;;;;;;;;;;;;;;;4912496;29;19914;-85
2023/01/09 18:17:08;;;;;;;;;;;;;;;;;;5518594;23;19972;-84
2023/01/09 18:19:35;;;;;;;;;;;;;;;;;;4960778;28;19927;-81
2023/01/09 18:22:03;;;;;;;;;;;;;;;;;;4961414;29;19922;-82
2023/01/09 18:24:29;;;;;;;;;;;;;;;;;;4958768;29;19950;-81
2023/01/09 18:26:54;;;;;;;;;;;;;;;;;;4975322;29;19913;-83
2023/01/09 18:29:28;;;;;;;;;;;;;;;;;;4946768;29;19922;-83
2023/01/09 18:31:54;;;;;;;;;;;;;;;;;;4960721;29;20378;-82
2023/01/09 18:34:20;;;;;;;;;;;;;;;;;;4960540;29;19914;-82
2023/01/09 18:36:46;;;;;;;;;;;;;;;;;;4960723;29;19903;-82
2023/01/09 18:39:11;;;;;;;;;;;;;;;;;;4978486;29;19982;-83
2023/01/09 18:41:37;;;;;;;;;;;;;;;;;;4959893;29;19947;-82
2023/01/09 18:44:03;;;;;;;;;;;;;;;;;;4978407;29;19944;-83
2023/01/09 18:46:31;;;;;;;;;;;;;;;;;;4978566;29;19903;-82
2023/01/09 18:48:57;;;;;;;;;;;;;;;;;;4961907;29;20000;-83
2023/01/09 18:51:23;;;;;;;;;;;;;;;;;;4961967;29;19914;-83
2023/01/09 18:53:49;;;;;;;;;;;;;;;;;;4961464;29;19958;-83
2023/01/09 18:56:15;;;;;;;;;;;;;;;;;;4979133;29;19906;-82
2023/01/09 18:58:40;;;;;;;;;;;;;;;;;;4946079;29;19922;-83
2023/01/09 19:01:06;;;;;;;;;;;;;;;;;;4978721;28;19907;-82
2023/01/09 19:03:31;;;;;;;;;;;;;;;;;;4978179;29;19906;-82
2023/01/09 19:05:57;;;;;;;;;;;;;;;;;;4946273;29;19929;-82
2023/01/09 19:08:22;;;;;;;;;;;;;;;;;;4945097;29;19919;-82
2023/01/09 19:10:48;;;;;;;;;;;;;;;;;;4959918;29;19974;-83
2023/01/09 19:13:13;;;;;;;;;;;;;;;;;;4942864;29;19921;-82
2023/01/09 19:15:42;;;;;;;;;;;;;;;;;;4926083;29;19915;-83
2023/01/09 19:18:08;;;;;;;;;;;;;;;;;;4959424;29;19918;-81
2023/01/09 19:20:33;;;;;;;;;;;;;;;;;;4956975;29;19914;-81
2023/01/09 19:22:59;;;;;;;;;;;;;;;;;;4954708;29;20382;-82
2023/01/09 19:25:25;;;;;;;;;;;;;;;;;;4972133;29;19974;-81
2023/01/09 19:27:53;;;;;;;;;;;;;;;;;;4971852;29;19954;-82
2023/01/09 19:30:19;;;;;;;;;;;;;;;;;;4972134;29;19915;-82
2023/01/09 19:32:44;;;;;;;;;;;;;;;;;;4954266;29;19934;-82
2023/01/09 19:35:10;;;;;;;;;;;;;;;;;;4923333;29;19918;-82
2023/01/09 19:37:36;;;;;;;;;;;;;;;;;;4936587;29;19915;-82
2023/01/09 19:40:01;;;;;;;;;;;;;;;;;;4932329;29;19945;-82
2023/01/09 19:42:27;;;;;;;;;;;;;;;;;;4955392;29;19910;-82
2023/01/09 19:44:52;;;;;;;;;;;;;;;;;;4954486;29;19914;-82
2023/01/09 19:47:18;;;;;;;;;;;;;;;;;;4954560;29;19922;-82
2023/01/09 19:49:43;;;;;;;;;;;;;;;;;;4953740;29;19915;-81
2023/01/09 19:52:09;;;;;;;;;;;;;;;;;;4924235;29;20255;-82
2023/01/09 19:54:35;;;;;;;;;;;;;;;;;;4970351;29;19910;-82
2023/01/09 19:57:00;;;;;;;;;;;;;;;;;;4938347;29;19914;-82
2023/01/09 19:59:26;;;;;;;;;;;;;;;;;;4937472;29;20382;-82
2023/01/09 20:01:54;;;;;;;;;;;;;;;;;;4954246;29;19982;-82
2023/01/09 20:04:19;;;;;;;;;;;;;;;;;;4955063;28;19914;-81
2023/01/09 20:06:46;;;;;;;;;;;;;;;;;;4973274;29;19914;-82
2023/01/09 20:09:11;;;;;;;;;;;;;;;;;;4973867;29;19914;-81
2023/01/09 20:11:39;;;;;;;;;;;;;;;;;;4941164;29;19921;-82